createdAt,value
2024-01-15T00:01:39.924Z,59.79
2024-01-15T00:04:06.847Z,59.06
2024-01-15T00:06:33.853Z,59.02
2024-01-15T00:09:00.895Z,59.33
2024-01-15T00:11:27.743Z,59.41
2024-01-15T00:13:54.742Z,59.50
2024-01-15T00:16:21.590Z,59.10
2024-01-15T00:18:48.576Z,60.76
2024-01-15T00:21:15.541Z,60.88
2024-01-15T00:23:42.378Z,61.25
2024-01-15T00:26:10.734Z,62.80
2024-01-15T00:28:37.704Z,62.23
2024-01-15T00:31:04.891Z,61.81
2024-01-15T00:33:31.861Z,62.61
2024-01-15T00:35:58.757Z,63.24
2024-01-15T00:38:25.650Z,62.75
2024-01-15T00:40:52.513Z,61.95
2024-01-15T00:43:22.184Z,62.19
2024-01-15T00:45:49.043Z,62.57
2024-01-15T00:48:18.280Z,61.89
2024-01-15T00:50:45.137Z,60.82
2024-01-15T00:53:11.943Z,62.50
2024-01-15T00:55:38.674Z,61.76
2024-01-15T00:58:05.462Z,61.57
2024-01-15T01:00:32.340Z,60.84
2024-01-15T01:02:59.182Z,59.82
2024-01-15T01:05:26.190Z,60.27
2024-01-15T01:07:52.971Z,60.38
2024-01-15T01:10:21.787Z,59.99
2024-01-15T01:12:48.549Z,59.21
2024-01-15T01:15:15.495Z,58.73
2024-01-15T01:17:42.515Z,60.75
2024-01-15T01:20:09.490Z,61.42
2024-01-15T01:22:36.344Z,61.37
2024-01-15T01:25:03.088Z,61.25
2024-01-15T01:27:30.104Z,61.59
2024-01-15T01:29:56.872Z,62.03
2024-01-15T01:32:23.689Z,62.47
2024-01-15T01:34:50.748Z,64.39
2024-01-15T01:37:17.639Z,63.02
2024-01-15T01:39:44.535Z,63.95
2024-01-15T01:42:11.350Z,63.35
2024-01-15T01:44:38.151Z,63.35
2024-01-15T01:47:04.948Z,61.77
2024-01-15T01:49:31.810Z,62.83
2024-01-15T01:51:58.713Z,63.10
2024-01-15T01:54:25.584Z,63.51
2024-01-15T01:56:52.434Z,63.41
2024-01-15T01:59:19.177Z,63.58
2024-01-15T02:01:46.017Z,63.28
2024-01-15T02:04:12.841Z,62.34
2024-01-15T02:06:39.699Z,63.67
2024-01-15T02:09:06.542Z,64.70
2024-01-15T02:11:33.238Z,64.46
2024-01-15T02:14:02.216Z,63.16
2024-01-15T02:16:28.908Z,64.89
2024-01-15T02:18:55.664Z,64.14
2024-01-15T02:21:22.487Z,64.06
2024-01-15T02:23:49.198Z,64.00
2024-01-15T02:26:16.042Z,62.30
2024-01-15T02:28:42.706Z,62.69
2024-01-15T02:31:09.432Z,62.80
2024-01-15T02:33:36.309Z,62.30
2024-01-15T02:36:03.143Z,62.87
2024-01-15T02:38:29.893Z,62.06
2024-01-15T02:40:56.614Z,62.34
2024-01-15T02:43:23.301Z,62.50
2024-01-15T02:45:50.021Z,61.56
2024-01-15T02:48:16.932Z,61.96
2024-01-15T02:50:43.698Z,61.75
2024-01-15T02:53:10.389Z,63.17
2024-01-15T02:55:37.219Z,62.38
2024-01-15T02:58:06.785Z,61.77
2024-01-15T03:00:33.759Z,62.60
2024-01-15T03:03:00.567Z,62.89
2024-01-15T03:05:27.343Z,63.27
2024-01-15T03:07:54.051Z,64.49
2024-01-15T03:10:20.726Z,63.34
2024-01-15T03:12:47.411Z,63.40
2024-01-15T03:15:14.153Z,64.46
2024-01-15T03:17:40.944Z,63.98
2024-01-15T03:20:07.740Z,64.35
2024-01-15T03:22:34.412Z,66.78
2024-01-15T03:25:01.390Z,66.56
2024-01-15T03:27:28.290Z,67.34
2024-01-15T03:29:54.979Z,67.17
2024-01-15T03:32:21.629Z,68.11
2024-01-15T03:34:48.438Z,67.82
2024-01-15T03:37:15.310Z,67.64
2024-01-15T03:39:42.212Z,66.92
2024-01-15T03:42:09.054Z,67.02
2024-01-15T03:44:35.927Z,66.99
2024-01-15T03:47:02.761Z,67.79
2024-01-15T03:49:29.713Z,66.98
2024-01-15T03:51:56.618Z,66.34
2024-01-15T03:54:23.458Z,67.03
2024-01-15T03:56:50.316Z,67.12
2024-01-15T03:59:17.120Z,67.55
2024-01-15T04:01:44.001Z,67.34
2024-01-15T04:04:11.252Z,68.08
2024-01-15T04:06:38.921Z,67.52
2024-01-15T04:09:05.765Z,68.90
2024-01-15T04:11:32.518Z,68.54
2024-01-15T04:13:59.433Z,68.01
2024-01-15T04:16:26.232Z,67.26
2024-01-15T04:18:53.071Z,68.26
2024-01-15T04:21:20.099Z,68.52
2024-01-15T04:23:46.967Z,68.79
2024-01-15T04:26:13.693Z,68.34
2024-01-15T04:28:40.439Z,67.31
2024-01-15T04:31:07.256Z,67.53
2024-01-15T04:33:34.292Z,67.16
2024-01-15T04:36:02.148Z,68.49
2024-01-15T04:38:29.106Z,68.51
2024-01-15T04:40:58.572Z,66.99
2024-01-15T04:43:25.662Z,67.23
2024-01-15T04:45:52.719Z,66.55
2024-01-15T04:48:19.768Z,66.32
2024-01-15T04:50:46.635Z,66.75
2024-01-15T04:53:13.713Z,66.81
2024-01-15T04:55:40.542Z,67.38
2024-01-15T04:58:07.404Z,67.09
2024-01-15T05:00:34.286Z,67.56
2024-01-15T05:03:01.230Z,68.20
2024-01-15T05:05:28.338Z,68.27
2024-01-15T05:07:55.195Z,68.19
2024-01-15T05:10:22.045Z,67.54
2024-01-15T05:12:49.063Z,67.65
2024-01-15T05:15:15.992Z,67.78
2024-01-15T05:17:42.796Z,68.30
2024-01-15T05:20:09.661Z,69.34
2024-01-15T05:22:36.512Z,68.36
2024-01-15T05:25:03.275Z,67.94
2024-01-15T05:27:30.034Z,67.64
2024-01-15T05:29:56.852Z,66.40
2024-01-15T05:32:23.721Z,67.02
2024-01-15T05:34:50.744Z,66.79
2024-01-15T05:37:17.548Z,67.97
2024-01-15T05:39:44.463Z,66.53
2024-01-15T05:42:11.337Z,67.73
2024-01-15T05:44:38.173Z,67.37
2024-01-15T05:47:04.871Z,67.13
2024-01-15T05:49:31.799Z,67.01
2024-01-15T05:51:58.687Z,67.07
2024-01-15T05:54:25.695Z,67.90
2024-01-15T05:56:52.497Z,66.56
2024-01-15T05:59:19.251Z,67.06
2024-01-15T06:01:46.027Z,68.37
2024-01-15T06:04:13.020Z,67.67
2024-01-15T06:06:39.835Z,67.92
2024-01-15T06:09:06.691Z,67.97
2024-01-15T06:11:33.647Z,66.81
2024-01-15T06:14:00.459Z,66.37
2024-01-15T06:16:27.390Z,67.42
2024-01-15T06:18:54.283Z,67.33
2024-01-15T06:21:21.197Z,67.70
2024-01-15T06:23:48.132Z,67.24
2024-01-15T06:26:15.135Z,67.11
2024-01-15T06:28:45.559Z,67.47
2024-01-15T06:31:14.633Z,67.06
2024-01-15T06:33:44.022Z,66.47
2024-01-15T06:36:10.979Z,67.15
2024-01-15T06:38:37.801Z,66.48
2024-01-15T06:41:04.688Z,66.90
2024-01-15T06:43:31.428Z,67.69
2024-01-15T06:45:58.153Z,65.67
2024-01-15T06:48:24.899Z,64.45
2024-01-15T06:50:51.595Z,64.03
2024-01-15T06:53:18.247Z,63.53
2024-01-15T06:55:44.848Z,64.32
2024-01-15T06:58:11.457Z,66.01
2024-01-15T07:00:38.075Z,65.37
2024-01-15T07:03:04.704Z,64.74
2024-01-15T07:05:31.440Z,64.38
2024-01-15T07:07:58.105Z,65.49
2024-01-15T07:10:24.722Z,66.98
2024-01-15T07:12:51.466Z,67.34
2024-01-15T07:15:18.106Z,66.16
2024-01-15T07:17:44.802Z,68.36
2024-01-15T07:20:11.635Z,66.73
2024-01-15T07:22:38.449Z,66.96
2024-01-15T07:25:05.179Z,67.35
2024-01-15T07:27:32.126Z,66.98
2024-01-15T07:30:01.650Z,68.34
2024-01-15T07:32:28.892Z,67.76
2024-01-15T07:34:55.641Z,66.26
2024-01-15T07:37:22.279Z,67.21
2024-01-15T07:39:49.052Z,66.21
2024-01-15T07:42:15.728Z,65.96
2024-01-15T07:44:42.430Z,66.82
2024-01-15T07:47:09.064Z,66.18
2024-01-15T07:49:35.881Z,66.42
2024-01-15T07:52:02.603Z,65.75
2024-01-15T07:54:29.296Z,65.14
2024-01-15T07:56:55.920Z,63.82
2024-01-15T07:59:22.528Z,64.25
2024-01-15T08:01:49.165Z,65.31
2024-01-15T08:04:15.871Z,64.35
2024-01-15T08:06:42.552Z,64.80
2024-01-15T08:09:09.185Z,64.44
2024-01-15T08:11:35.772Z,65.48
2024-01-15T08:14:02.463Z,64.68
2024-01-15T08:16:29.079Z,65.15
2024-01-15T08:18:55.886Z,66.22
2024-01-15T08:21:22.526Z,65.74
2024-01-15T08:23:49.097Z,66.06
2024-01-15T08:26:15.748Z,65.56
2024-01-15T08:28:42.316Z,67.25
2024-01-15T08:31:09.104Z,65.06
2024-01-15T08:33:35.921Z,64.52
2024-01-15T08:36:02.580Z,65.58
2024-01-15T08:38:29.171Z,64.89
2024-01-15T08:40:55.830Z,65.14
2024-01-15T08:43:22.500Z,67.24
2024-01-15T08:45:49.123Z,66.04
2024-01-15T08:48:15.930Z,66.26
2024-01-15T08:50:42.632Z,66.19
2024-01-15T08:53:09.234Z,64.92
2024-01-15T08:55:35.841Z,66.04
2024-01-15T08:58:02.434Z,66.07
2024-01-15T09:00:29.142Z,66.13
2024-01-15T09:02:55.778Z,65.65
2024-01-15T09:05:25.287Z,66.57
2024-01-15T09:07:52.050Z,66.82
2024-01-15T09:10:18.645Z,66.22
2024-01-15T09:12:45.300Z,66.09
2024-01-15T09:15:11.992Z,65.99
2024-01-15T09:17:38.681Z,67.40
2024-01-15T09:20:05.400Z,66.47
2024-01-15T09:22:32.056Z,66.09
2024-01-15T09:24:58.877Z,66.20
2024-01-15T09:27:25.565Z,64.54
2024-01-15T09:29:52.249Z,65.15
2024-01-15T09:32:18.866Z,65.80
2024-01-15T09:34:45.689Z,62.19
2024-01-15T09:37:17.089Z,62.71
2024-01-15T09:39:50.494Z,62.98
2024-01-15T09:42:17.876Z,63.03
2024-01-15T09:44:45.425Z,64.88
2024-01-15T09:47:12.018Z,65.01
2024-01-15T09:49:38.697Z,65.44
2024-01-15T09:52:09.558Z,62.41
2024-01-15T09:54:38.693Z,62.98
2024-01-15T09:57:05.314Z,63.12
2024-01-15T09:59:31.976Z,63.44
2024-01-15T10:01:58.586Z,63.71
2024-01-15T10:04:25.417Z,63.36
2024-01-15T10:06:52.404Z,63.82
2024-01-15T10:09:19.325Z,63.53
2024-01-15T10:11:45.917Z,64.84
2024-01-15T10:14:12.570Z,65.18
2024-01-15T10:16:41.134Z,64.92
2024-01-15T10:19:07.947Z,64.50
2024-01-15T10:21:34.596Z,65.75
2024-01-15T10:24:01.184Z,68.17
2024-01-15T10:26:27.790Z,68.34
2024-01-15T10:28:54.501Z,68.12
2024-01-15T10:31:21.235Z,69.24
2024-01-15T10:33:48.060Z,68.74
2024-01-15T10:36:14.714Z,67.61
2024-01-15T10:38:41.323Z,67.25
2024-01-15T10:41:07.947Z,67.42
2024-01-15T10:43:34.574Z,67.19
2024-01-15T10:46:01.241Z,66.20
2024-01-15T10:48:28.096Z,67.09
2024-01-15T10:50:54.721Z,68.24
2024-01-15T10:53:21.369Z,67.76
2024-01-15T10:55:48.078Z,68.19
2024-01-15T10:58:14.746Z,68.15
2024-01-15T11:00:41.507Z,68.07
2024-01-15T11:03:08.219Z,68.87
2024-01-15T11:05:34.978Z,69.35
2024-01-15T11:08:01.695Z,68.75
2024-01-15T11:10:28.271Z,68.67
2024-01-15T11:12:54.947Z,68.95
2024-01-15T11:15:21.753Z,68.94
2024-01-15T11:17:48.473Z,68.86
2024-01-15T11:20:15.138Z,68.50
2024-01-15T11:22:41.798Z,69.55
2024-01-15T11:25:08.400Z,69.37
2024-01-15T11:27:35.062Z,70.01
2024-01-15T11:30:01.671Z,68.17
2024-01-15T11:32:28.254Z,67.88
2024-01-15T11:34:55.076Z,67.82
2024-01-15T11:37:21.789Z,67.48
2024-01-15T11:39:48.427Z,66.65
2024-01-15T11:42:15.042Z,66.23
2024-01-15T11:44:41.630Z,67.47
2024-01-15T11:47:08.819Z,67.40
2024-01-15T11:49:36.341Z,67.78
2024-01-15T11:52:03.081Z,68.13
2024-01-15T11:54:29.796Z,67.35
2024-01-15T11:56:56.399Z,67.66
2024-01-15T11:59:22.955Z,68.22
2024-01-15T12:01:49.757Z,67.14
2024-01-15T12:04:18.438Z,66.51
2024-01-15T12:06:45.464Z,68.76
2024-01-15T12:09:12.159Z,68.81
2024-01-15T12:11:38.805Z,67.92
2024-01-15T12:14:05.437Z,69.67
2024-01-15T12:16:32.072Z,70.14
2024-01-15T12:18:58.750Z,70.87
2024-01-15T12:21:25.429Z,70.99
2024-01-15T12:23:52.069Z,71.02
2024-01-15T12:26:18.658Z,71.52
2024-01-15T12:28:48.256Z,71.97
2024-01-15T12:31:15.058Z,71.99
2024-01-15T12:33:43.069Z,70.99
2024-01-15T12:36:09.827Z,71.81
2024-01-15T12:38:36.413Z,70.93
2024-01-15T12:41:02.986Z,70.90
2024-01-15T12:43:29.709Z,69.12
2024-01-15T12:45:56.396Z,70.22
2024-01-15T12:48:23.233Z,70.45
2024-01-15T12:50:49.914Z,70.22
2024-01-15T12:53:16.563Z,69.38
2024-01-15T12:55:43.186Z,70.28
2024-01-15T12:58:09.843Z,69.89
2024-01-15T13:00:38.431Z,69.94
2024-01-15T13:03:05.165Z,69.00
2024-01-15T13:05:32.318Z,67.62
2024-01-15T13:07:59.047Z,66.07
2024-01-15T13:10:26.596Z,66.47
2024-01-15T13:12:53.660Z,67.97
2024-01-15T13:15:20.329Z,69.46
2024-01-15T13:17:47.013Z,68.89
2024-01-15T13:20:14.222Z,70.60
2024-01-15T13:22:42.968Z,70.41
2024-01-15T13:25:10.080Z,71.06
2024-01-15T13:27:37.424Z,71.50
2024-01-15T13:30:04.381Z,71.04
2024-01-15T13:32:31.254Z,70.32
2024-01-15T13:34:58.054Z,69.95
2024-01-15T13:37:24.812Z,71.76
2024-01-15T13:39:51.395Z,70.61
2024-01-15T13:42:18.025Z,69.08
2024-01-15T13:44:44.674Z,68.40
2024-01-15T13:47:11.285Z,69.37
2024-01-15T13:49:38.162Z,68.18
2024-01-15T13:52:05.046Z,65.72
2024-01-15T13:54:42.134Z,63.97
2024-01-15T13:57:15.946Z,63.81
2024-01-15T13:59:42.601Z,63.14
2024-01-15T14:02:09.216Z,58.72
2024-01-15T14:04:36.265Z,59.20
2024-01-15T14:07:02.860Z,59.69
2024-01-15T14:09:29.466Z,54.57
2024-01-15T14:11:56.785Z,56.93
2024-01-15T14:14:23.452Z,58.11
2024-01-15T14:16:50.073Z,57.71
2024-01-15T14:19:16.765Z,56.99
2024-01-15T14:21:43.429Z,56.83
2024-01-15T14:24:10.128Z,55.88
2024-01-15T14:26:36.687Z,54.51
2024-01-15T14:29:03.265Z,56.33
2024-01-15T14:31:30.287Z,55.46
2024-01-15T14:33:57.154Z,54.06
2024-01-15T14:36:23.893Z,52.87
2024-01-15T14:38:50.526Z,52.68
2024-01-15T14:41:17.110Z,53.20
2024-01-15T14:43:43.729Z,52.90
2024-01-15T14:46:10.431Z,58.15
2024-01-15T14:48:37.143Z,62.47
2024-01-15T14:51:03.839Z,62.76
2024-01-15T14:53:32.511Z,63.84
2024-01-15T14:55:59.058Z,63.50
2024-01-15T14:58:25.655Z,63.33
2024-01-15T15:00:52.321Z,61.85
2024-01-15T15:03:19.221Z,62.00
2024-01-15T15:05:45.935Z,61.07
2024-01-15T15:08:12.775Z,62.31
2024-01-15T15:10:39.351Z,62.30
2024-01-15T15:13:14.002Z,63.46
2024-01-15T15:15:40.645Z,63.04
2024-01-15T15:18:07.660Z,63.20
2024-01-15T15:20:38.828Z,63.58
2024-01-15T15:23:05.419Z,59.26
2024-01-15T15:25:32.011Z,55.10
2024-01-15T15:27:58.861Z,53.27
2024-01-15T15:30:25.753Z,52.48
2024-01-15T15:32:53.388Z,53.89
2024-01-15T15:35:20.972Z,53.95
2024-01-15T15:37:47.645Z,54.07
2024-01-15T15:40:14.330Z,53.57
2024-01-15T15:42:41.021Z,53.87
2024-01-15T15:45:07.815Z,53.61
2024-01-15T15:47:34.535Z,53.19
2024-01-15T15:50:01.315Z,54.18
2024-01-15T15:52:27.988Z,53.34
2024-01-15T15:54:54.648Z,52.33
2024-01-15T15:57:21.446Z,51.88
2024-01-15T15:59:48.065Z,50.58
2024-01-15T16:02:14.705Z,50.49
2024-01-15T16:04:41.702Z,48.78
2024-01-15T16:07:20.205Z,48.22
2024-01-15T16:09:57.623Z,47.64
2024-01-15T16:12:24.561Z,48.24
2024-01-15T16:14:51.707Z,47.41
2024-01-15T16:23:15.234Z,46.98
2024-01-15T16:23:28.826Z,45.89
2024-01-15T16:23:44.492Z,45.90
2024-01-15T16:25:41.818Z,46.09
2024-01-15T16:28:09.390Z,45.84
2024-01-15T16:30:44.950Z,44.94
2024-01-15T16:33:12.436Z,44.37
2024-01-15T16:35:39.227Z,44.55
2024-01-15T16:38:06.202Z,45.39
2024-01-15T16:40:36.253Z,44.44
2024-01-15T16:43:03.788Z,44.28
2024-01-15T16:45:36.599Z,45.47
2024-01-15T16:48:03.531Z,45.67
2024-01-15T16:50:30.337Z,44.71
2024-01-15T16:52:57.019Z,45.60
2024-01-15T16:55:23.659Z,45.09
2024-01-15T16:57:50.276Z,44.76
2024-01-15T17:00:16.871Z,45.13
2024-01-15T17:02:43.762Z,44.99
2024-01-15T17:05:10.774Z,44.20
2024-01-15T17:07:37.380Z,45.02
2024-01-15T17:10:03.957Z,44.14
2024-01-15T17:12:30.555Z,44.26
2024-01-15T17:14:57.158Z,45.02
2024-01-15T17:17:23.836Z,45.27
2024-01-15T17:19:50.417Z,44.84
2024-01-15T17:22:16.993Z,44.69
2024-01-15T17:24:43.718Z,44.42
2024-01-15T17:27:10.391Z,44.38
2024-01-15T17:29:37.135Z,43.99
2024-01-15T17:32:03.847Z,44.04
2024-01-15T17:34:30.427Z,44.54
2024-01-15T17:36:57.036Z,44.00
2024-01-15T17:39:23.608Z,43.56
2024-01-15T17:41:50.172Z,44.87
2024-01-15T17:44:17.092Z,44.23
2024-01-15T17:46:44.750Z,45.49
2024-01-15T17:49:11.386Z,44.55
2024-01-15T17:51:38.769Z,43.64
2024-01-15T17:54:08.190Z,45.14
2024-01-15T17:56:38.219Z,45.26
2024-01-15T17:59:08.266Z,46.42
2024-01-15T18:01:34.895Z,46.54
2024-01-15T18:04:01.920Z,45.44
2024-01-15T18:06:28.613Z,44.52
2024-01-15T18:08:55.260Z,44.23
2024-01-15T18:11:21.949Z,44.69
2024-01-15T18:13:48.709Z,43.21
2024-01-15T18:16:15.318Z,43.41
2024-01-15T18:18:42.211Z,43.66
2024-01-15T18:21:08.977Z,43.02
2024-01-15T18:23:35.620Z,43.99
2024-01-15T18:26:02.407Z,43.75
2024-01-15T18:28:33.473Z,44.85
2024-01-15T18:31:00.202Z,44.06
2024-01-15T18:33:26.878Z,45.71
2024-01-15T18:35:53.644Z,44.98
2024-01-15T18:38:20.576Z,46.30
2024-01-15T18:40:47.359Z,46.81
2024-01-15T18:43:21.125Z,46.10
2024-01-15T18:45:47.859Z,47.07
2024-01-15T18:48:14.824Z,48.28
2024-01-15T18:50:41.679Z,47.24
2024-01-15T18:53:08.400Z,46.31
2024-01-15T18:55:34.975Z,46.50
2024-01-15T18:58:01.593Z,47.20
2024-01-15T19:00:28.178Z,47.47
2024-01-15T19:02:54.848Z,48.55
2024-01-15T19:05:21.636Z,47.35
2024-01-15T19:07:48.386Z,47.74
2024-01-15T19:10:15.051Z,48.22
2024-01-15T19:12:41.749Z,48.19
2024-01-15T19:15:08.463Z,48.65
2024-01-15T19:17:36.502Z,48.57
2024-01-15T19:20:03.368Z,47.60
2024-01-15T19:22:30.173Z,49.45
2024-01-15T19:24:56.815Z,48.95
2024-01-15T19:27:23.545Z,47.88
2024-01-15T19:29:50.195Z,47.71
2024-01-15T19:32:16.923Z,48.72
2024-01-15T19:34:43.610Z,47.71
2024-01-15T19:37:10.380Z,47.97
2024-01-15T19:39:37.080Z,48.35
2024-01-15T19:42:03.825Z,47.62
2024-01-15T19:44:30.852Z,46.88
2024-01-15T19:46:57.634Z,48.11
2024-01-15T19:49:24.320Z,46.89
2024-01-15T19:51:50.962Z,46.68
2024-01-15T19:54:17.655Z,47.11
2024-01-15T19:56:44.360Z,46.38
2024-01-15T19:59:11.034Z,45.06
2024-01-15T20:01:37.662Z,45.49
2024-01-15T20:04:07.528Z,46.52
2024-01-15T20:06:34.294Z,44.89
2024-01-15T20:09:01.820Z,44.93
2024-01-15T20:11:33.658Z,45.33
2024-01-15T20:14:00.380Z,45.31
2024-01-15T20:16:27.033Z,45.10
2024-01-15T20:18:53.947Z,43.78
2024-01-15T20:21:20.651Z,42.86
2024-01-15T20:23:55.037Z,43.24
2024-01-15T20:26:25.579Z,42.39
2024-01-15T20:28:52.578Z,42.36
2024-01-15T20:31:21.993Z,40.61
2024-01-15T20:33:58.961Z,41.40
2024-01-15T20:36:26.604Z,40.98
2024-01-15T20:38:53.215Z,41.85
2024-01-15T20:41:19.963Z,42.88
2024-01-15T20:43:46.607Z,42.27
2024-01-15T20:46:15.210Z,42.42
2024-01-15T20:48:41.946Z,42.01
2024-01-15T20:51:08.588Z,41.84
2024-01-15T20:53:35.201Z,42.81
2024-01-15T20:56:01.897Z,41.54
2024-01-15T20:58:28.553Z,42.93
2024-01-15T21:00:55.263Z,43.16
2024-01-15T21:03:22.062Z,44.09
2024-01-15T21:05:48.757Z,43.46
2024-01-15T21:08:15.537Z,42.12
2024-01-15T21:10:42.123Z,41.03
2024-01-15T21:13:08.701Z,40.43
2024-01-15T21:15:35.334Z,40.40
2024-01-15T21:18:02.108Z,40.35
2024-01-15T21:20:29.058Z,41.52
2024-01-15T21:22:55.713Z,41.42
2024-01-15T21:25:22.316Z,40.95
2024-01-15T21:27:48.934Z,41.42
2024-01-15T21:30:15.585Z,42.02
2024-01-15T21:32:42.331Z,42.36
2024-01-15T21:35:11.114Z,41.91
2024-01-15T21:37:37.767Z,41.32
2024-01-15T21:40:04.415Z,41.97
2024-01-15T21:42:31.112Z,41.73
2024-01-15T21:45:02.929Z,43.35
2024-01-15T21:47:41.307Z,44.50
2024-01-15T21:50:09.121Z,43.98
2024-01-15T21:52:35.814Z,43.45
2024-01-15T21:55:02.394Z,43.99
2024-01-15T21:57:31.720Z,44.53
2024-01-15T22:00:00.366Z,43.85
2024-01-15T22:02:27.454Z,44.55
2024-01-15T22:04:54.224Z,45.25
2024-01-15T22:07:20.911Z,44.10
2024-01-15T22:09:47.543Z,45.22
2024-01-15T22:12:14.179Z,45.12
2024-01-15T22:14:43.701Z,43.90
2024-01-15T22:17:10.417Z,43.83
2024-01-15T22:19:37.056Z,44.50
2024-01-15T22:22:03.653Z,44.35
2024-01-15T22:24:30.214Z,44.63
2024-01-15T22:26:56.779Z,44.80
2024-01-15T22:29:23.479Z,45.58
2024-01-15T22:31:50.065Z,45.37
2024-01-15T22:34:16.753Z,47.06
2024-01-15T22:36:43.526Z,45.20
2024-01-15T22:39:10.111Z,45.34
2024-01-15T22:41:36.756Z,44.61
2024-01-15T22:44:05.950Z,43.39
2024-01-15T22:46:33.988Z,43.67
2024-01-15T22:49:03.722Z,43.69
2024-01-15T22:51:31.786Z,43.15
2024-01-15T22:53:58.500Z,44.14
2024-01-15T22:56:26.159Z,43.41
2024-01-15T22:58:52.967Z,43.40
2024-01-15T23:01:19.709Z,43.68
2024-01-15T23:03:46.464Z,44.19
2024-01-15T23:06:13.390Z,44.59
2024-01-15T23:08:40.705Z,43.92
2024-01-15T23:11:10.806Z,42.79
2024-01-15T23:13:39.619Z,43.30
2024-01-15T23:16:06.210Z,43.03
2024-01-15T23:18:32.856Z,44.54
2024-01-15T23:20:59.418Z,44.02
2024-01-15T23:23:26.111Z,43.97
2024-01-15T23:25:53.067Z,43.31
2024-01-15T23:28:20.945Z,43.24
2024-01-15T23:30:47.820Z,42.99
2024-01-15T23:33:14.727Z,42.45
2024-01-15T23:35:41.490Z,42.73
2024-01-15T23:38:08.358Z,44.44
2024-01-15T23:40:35.238Z,45.50
2024-01-15T23:43:02.039Z,44.43
2024-01-15T23:45:28.588Z,43.91
2024-01-15T23:47:58.223Z,43.89
2024-01-15T23:50:25.023Z,44.77
2024-01-15T23:52:51.867Z,44.88
2024-01-15T23:55:18.617Z,44.87
2024-01-15T23:57:45.528Z,44.32
